»·PEaware :: N516DM KSMX-KMRY

N516DM :: KSMX-KMRY

FLIGHT INFORMATION

Flight Status: Arrived
Operator: Privately registered:
United States
More flights under this callsign
Pilot: Thomas H. (5912)
Aircraft: Unknown
(DA62)
More flights by this aircraft type
Origin: KSMX Santa Maria Pub/Capt Hancock
United States
Destination: KMRY Monterey Peninsula
United States
More flights between these airports :: More routes between these airports
Route: +MQO PRB V25 WIGGL
File this flight plan on PilotEdge
Remarks:
Altitude:
(Current/Filed)
8,000ft
Speed:
(Current/Filed)
175kts
Departed: 14-Mar-19 12:12 PM
Arrived: 14-Mar-19 01:10 PM
Distance/Time
Traveled:
122nm/0:58
Distance/Time
To Go:
Arrived

Flight Plot

Page will automatically refresh every two minutes.

Flight plan parsing failed; only flown route is shown


Map Options




Map Legend


Flown Route
Filed Route
Departure Airport
Arrival Airport
Navaid (VOR, NDB)
Fix

Horizontal Profiles

Position Reports

Time Latitude Longitude Heading Altitude Ground
Speed
14-Mar-19 11:57 34.901757 -120.452484 228 265ft 0kts
14-Mar-19 11:58 34.901757 -120.452484 228 265ft 0kts
14-Mar-19 11:59 34.901757 -120.452484 228 265ft 0kts
14-Mar-19 12:00 34.901757 -120.452484 228 265ft 0kts
14-Mar-19 12:01 34.901757 -120.452484 228 265ft 0kts
14-Mar-19 12:02 34.901757 -120.452484 228 265ft 0kts
14-Mar-19 12:03 34.901757 -120.452484 228 265ft 0kts
14-Mar-19 12:04 34.901757 -120.452484 228 265ft 0kts
14-Mar-19 12:05 34.901757 -120.452484 228 265ft 0kts
14-Mar-19 12:06 34.901757 -120.452484 228 265ft 0kts
14-Mar-19 12:07 34.900329 -120.452392 137 265ft 12kts
14-Mar-19 12:08 34.897145 -120.448584 135 265ft 17kts
14-Mar-19 12:09 34.893567 -120.445203 182 265ft 12kts
14-Mar-19 12:10 34.892908 -120.445470 232 265ft 12kts
14-Mar-19 12:11 34.905903 -120.461879 313 659ft 100kts
14-Mar-19 12:12 34.922383 -120.451605 106 1856ft 105kts
14-Mar-19 12:13 34.909922 -120.417567 112 2984ft 115kts
14-Mar-19 12:14 34.896130 -120.381717 112 4092ft 119kts
14-Mar-19 12:15 34.881947 -120.344133 113 4997ft 136kts
14-Mar-19 12:16 34.864847 -120.297771 113 5001ft 158kts
14-Mar-19 12:17 34.889002 -120.281131 320 5777ft 149kts
14-Mar-19 12:18 34.916411 -120.315594 316 6938ft 136kts
14-Mar-19 12:19 34.941417 -120.348258 316 7983ft 138kts
14-Mar-19 12:20 34.971077 -120.387059 315 8003ft 168kts
14-Mar-19 12:21 35.003592 -120.429986 315 7999ft 174kts
14-Mar-19 12:22 35.036676 -120.473726 315 7999ft 176kts
14-Mar-19 12:23 35.070016 -120.517713 315 7999ft 176kts
14-Mar-19 12:24 35.103300 -120.561751 315 8000ft 176kts
14-Mar-19 12:25 35.136500 -120.605707 315 8001ft 176kts
14-Mar-19 12:26 35.169742 -120.649769 315 8000ft 176kts
14-Mar-19 12:27 35.202995 -120.693912 315 8000ft 176kts
14-Mar-19 12:28 35.236056 -120.737854 315 8000ft 175kts
14-Mar-19 12:29 35.279287 -120.748831 10 8000ft 170kts
14-Mar-19 12:30 35.325409 -120.736207 14 8000ft 170kts
14-Mar-19 12:31 35.371429 -120.721988 14 8001ft 170kts
14-Mar-19 12:33 35.417122 -120.707646 14 8008ft 170kts
14-Mar-19 12:34 35.462834 -120.693244 14 8016ft 170kts
14-Mar-19 12:35 35.508738 -120.678770 14 8024ft 170kts
14-Mar-19 12:36 35.554642 -120.664276 14 8027ft 170kts
14-Mar-19 12:37 35.600575 -120.649750 14 8027ft 170kts
14-Mar-19 12:38 35.646581 -120.635191 14 8027ft 171kts
14-Mar-19 12:39 35.690711 -120.646998 327 8027ft 174kts
14-Mar-19 12:40 35.729544 -120.682506 323 8026ft 174kts
14-Mar-19 12:41 35.767698 -120.719247 323 8026ft 174kts
14-Mar-19 12:42 35.805681 -120.756075 323 8026ft 173kts
14-Mar-19 12:43 35.843561 -120.792893 323 8026ft 173kts
14-Mar-19 12:44 35.881431 -120.829749 323 8030ft 173kts
14-Mar-19 12:45 35.919138 -120.866470 323 8034ft 172kts
14-Mar-19 12:46 35.956687 -120.903121 324 8039ft 172kts
14-Mar-19 12:47 35.994120 -120.939680 324 8043ft 171kts
14-Mar-19 12:48 36.031488 -120.976258 324 8044ft 171kts
14-Mar-19 12:48 36.062596 -121.006761 324 8043ft 171kts
14-Mar-19 12:50 36.105991 -121.049356 324 8045ft 170kts
14-Mar-19 12:51 36.143165 -121.085899 324 8046ft 170kts
14-Mar-19 12:52 36.180344 -121.122493 324 8046ft 170kts
14-Mar-19 12:52 36.211165 -121.152868 324 8046ft 170kts
14-Mar-19 12:54 36.254232 -121.195345 324 8046ft 170kts
14-Mar-19 12:55 36.291086 -121.231772 324 8046ft 169kts
14-Mar-19 12:55 36.321650 -121.261993 324 8045ft 169kts
14-Mar-19 12:56 36.358371 -121.298364 324 8047ft 168kts
14-Mar-19 12:58 36.401709 -121.341353 324 7572ft 179kts
14-Mar-19 12:58 36.428417 -121.381428 298 6742ft 189kts
14-Mar-19 12:59 36.449222 -121.441297 297 6048ft 185kts
14-Mar-19 13:00 36.468861 -121.498238 297 6044ft 175kts
14-Mar-19 13:01 36.487492 -121.549178 302 5439ft 158kts
14-Mar-19 13:02 36.508677 -121.596632 291 4643ft 156kts
14-Mar-19 13:03 36.520477 -121.647602 289 4064ft 147kts
14-Mar-19 13:04 36.535197 -121.694613 299 3463ft 149kts
14-Mar-19 13:05 36.551841 -121.742929 296 2445ft 152kts
14-Mar-19 13:06 36.566953 -121.785796 297 1733ft 112kts
14-Mar-19 13:07 36.578579 -121.819723 297 651ft 95kts
14-Mar-19 13:08 36.587044 -121.844567 296 194ft 49kts
14-Mar-19 13:09 36.587565 -121.847496 208 182ft 0kts

Navigation Log

Ident Type
Flight plan parsing failed, navigation log unavailable